Terminal Aerodrome Forecast
Issued by NWS

Home | Current Version | Previous Version | Text Only | Print | Product List | Glossary On
Versions: 1 2 3 4 5 6 7 8 9 10 11 12 13 14 15 16 17 18 19 20 21
000
FTUS44 KBMX 251120
TAFTOI
TAF
KTOI 251120Z 2512/2612 35004KT P6SM BKN150
     FM251600 34010KT P6SM BKN150
     FM260100 02003KT P6SM SCT150=

USA.gov is the U.S. government's official web portal to all federal, state and local government web resources and services.